createdAt,value
2022-08-16T00:01:11.527Z,19.65
2022-08-16T00:03:40.957Z,19.78
2022-08-16T00:06:07.825Z,19.75
2022-08-16T00:08:37.815Z,19.74
2022-08-16T00:11:15.055Z,19.70
2022-08-16T00:13:42.476Z,19.69
2022-08-16T00:17:00.589Z,19.67
2022-08-16T00:18:56.371Z,19.63
2022-08-16T00:21:23.400Z,19.69
2022-08-16T00:23:49.862Z,19.64
2022-08-16T00:26:36.329Z,19.61
2022-08-16T00:29:05.074Z,19.65
2022-08-16T00:32:00.065Z,19.58
2022-08-16T00:34:23.088Z,19.62
2022-08-16T00:37:10.181Z,19.55
2022-08-16T00:39:36.848Z,19.55
2022-08-16T00:42:06.035Z,19.57
2022-08-16T00:44:37.606Z,19.46
2022-08-16T00:47:10.453Z,19.53
2022-08-16T00:49:44.519Z,19.43
2022-08-16T00:52:29.158Z,19.47
2022-08-16T00:54:58.284Z,19.48
2022-08-16T00:57:24.815Z,19.40
2022-08-16T00:59:58.838Z,19.41
2022-08-16T01:02:31.395Z,19.42
2022-08-16T01:05:11.094Z,19.41
2022-08-16T01:07:51.606Z,19.30
2022-08-16T01:10:32.669Z,19.33
2022-08-16T01:13:12.277Z,19.29
2022-08-16T01:15:45.779Z,19.22
2022-08-16T01:18:39.707Z,19.24
2022-08-16T01:21:16.233Z,19.22
2022-08-16T01:24:44.510Z,19.19
2022-08-16T01:27:03.667Z,19.12
2022-08-16T01:29:57.321Z,19.09
2022-08-16T01:32:33.614Z,19.07
2022-08-16T01:35:02.369Z,18.97
2022-08-16T01:37:35.742Z,19.05
2022-08-16T01:40:06.849Z,19.04
2022-08-16T01:42:34.416Z,18.89
2022-08-16T01:45:01.209Z,18.88
2022-08-16T01:47:29.394Z,18.89
2022-08-16T01:50:43.387Z,18.84
2022-08-16T01:52:46.781Z,18.82
2022-08-16T01:55:14.575Z,18.80
2022-08-16T01:57:53.829Z,18.80
2022-08-16T02:00:28.863Z,18.74
2022-08-16T02:02:56.373Z,18.72
2022-08-16T02:05:23.442Z,18.72
2022-08-16T02:07:51.908Z,18.58
2022-08-16T02:10:19.428Z,18.55
2022-08-16T02:12:51.420Z,18.55
2022-08-16T02:15:26.013Z,18.56
2022-08-16T02:17:55.081Z,18.55
2022-08-16T02:20:26.205Z,18.48
2022-08-16T02:22:59.604Z,18.47
2022-08-16T02:25:51.943Z,18.39
2022-08-16T02:28:17.143Z,18.36
2022-08-16T02:30:50.476Z,18.20
2022-08-16T02:33:17.729Z,18.34
2022-08-16T02:35:54.132Z,18.26
2022-08-16T02:38:25.723Z,18.26
2022-08-16T02:40:54.385Z,18.29
2022-08-16T02:43:21.704Z,18.23
2022-08-16T02:45:54.017Z,18.21
2022-08-16T02:48:30.093Z,18.20
2022-08-16T02:51:06.636Z,18.21
2022-08-16T02:53:40.949Z,18.15
2022-08-16T02:56:11.262Z,18.06
2022-08-16T02:58:38.163Z,18.10
2022-08-16T03:01:07.197Z,18.09
2022-08-16T03:04:40.040Z,17.97
2022-08-16T03:06:39.133Z,17.99
2022-08-16T03:09:13.762Z,17.98
2022-08-16T03:11:41.970Z,17.94
2022-08-16T03:14:08.614Z,17.94
2022-08-16T03:16:39.120Z,17.97
2022-08-16T03:19:21.814Z,17.90
2022-08-16T03:21:48.785Z,17.84
2022-08-16T03:24:28.690Z,17.86
2022-08-16T03:27:01.769Z,17.85
2022-08-16T03:29:32.012Z,17.82
2022-08-16T03:32:01.309Z,17.75
2022-08-16T03:34:29.028Z,17.71
2022-08-16T03:36:57.803Z,17.74
2022-08-16T03:39:24.480Z,17.66
2022-08-16T03:41:59.963Z,17.64
2022-08-16T03:44:40.758Z,17.65
2022-08-16T03:47:11.407Z,17.51
2022-08-16T03:49:38.580Z,17.45
2022-08-16T03:52:05.510Z,17.57
2022-08-16T03:54:32.040Z,17.51
2022-08-16T03:57:02.995Z,17.38
2022-08-16T03:59:32.283Z,17.31
2022-08-16T04:02:01.104Z,17.41
2022-08-16T04:04:32.541Z,17.39
2022-08-16T04:06:59.449Z,17.33
2022-08-16T04:09:25.957Z,17.37
2022-08-16T04:11:52.922Z,17.24
2022-08-16T04:14:32.664Z,17.17
2022-08-16T04:17:01.649Z,17.19
2022-08-16T04:19:31.493Z,17.31
2022-08-16T04:21:58.593Z,17.26
2022-08-16T04:24:28.855Z,17.24
2022-08-16T04:26:55.663Z,17.10
2022-08-16T04:29:25.010Z,17.17
2022-08-16T04:31:55.593Z,17.14
2022-08-16T04:34:26.563Z,17.23
2022-08-16T04:36:53.981Z,17.20
2022-08-16T04:39:23.972Z,17.11
2022-08-16T04:41:56.706Z,17.04
2022-08-16T04:44:53.167Z,17.07
2022-08-16T04:47:21.861Z,17.10
2022-08-16T04:49:50.478Z,17.08
2022-08-16T04:52:33.768Z,17.07
2022-08-16T04:55:04.855Z,17.05
2022-08-16T04:57:31.555Z,17.03
2022-08-16T04:59:58.476Z,16.99
2022-08-16T05:02:41.477Z,17.04
2022-08-16T05:05:17.150Z,16.99
2022-08-16T05:07:58.579Z,17.03
2022-08-16T05:10:28.281Z,17.01
2022-08-16T05:12:56.828Z,16.93
2022-08-16T05:15:23.478Z,16.98
2022-08-16T05:17:58.366Z,16.88
2022-08-16T05:20:38.563Z,17.00
2022-08-16T05:23:13.642Z,16.99
2022-08-16T05:25:48.282Z,17.04
2022-08-16T05:28:17.234Z,17.00
2022-08-16T05:30:44.215Z,17.05
2022-08-16T05:33:16.896Z,17.08
2022-08-16T05:35:55.181Z,17.03
2022-08-16T05:38:33.080Z,17.03
2022-08-16T05:41:06.601Z,17.00
2022-08-16T05:43:43.611Z,16.95
2022-08-16T05:46:28.982Z,17.02
2022-08-16T05:49:03.606Z,17.09
2022-08-16T05:51:35.214Z,17.11
2022-08-16T05:54:06.383Z,17.09
2022-08-16T05:56:34.270Z,17.11
2022-08-16T05:59:06.261Z,17.11
2022-08-16T06:01:38.339Z,17.17
2022-08-16T06:04:12.608Z,17.22
2022-08-16T06:06:41.895Z,17.25
2022-08-16T06:09:15.493Z,17.26
2022-08-16T06:11:45.182Z,17.25
2022-08-16T06:14:12.403Z,17.25
2022-08-16T06:16:41.465Z,17.33
2022-08-16T06:19:08.903Z,17.36
2022-08-16T06:21:36.697Z,17.38
2022-08-16T06:24:53.641Z,17.39
2022-08-16T06:26:58.275Z,17.37
2022-08-16T06:29:25.139Z,17.42
2022-08-16T06:31:51.802Z,17.42
2022-08-16T06:34:31.637Z,17.54
2022-08-16T06:37:07.435Z,17.54
2022-08-16T06:39:34.959Z,17.55
2022-08-16T06:42:18.463Z,17.53
2022-08-16T06:44:46.268Z,17.64
2022-08-16T06:47:17.268Z,17.67
2022-08-16T06:49:52.607Z,17.65
2022-08-16T06:52:59.732Z,17.74
2022-08-16T06:55:13.034Z,17.76
2022-08-16T06:57:41.135Z,17.74
2022-08-16T07:00:17.525Z,17.82
2022-08-16T07:02:53.921Z,17.76
2022-08-16T07:05:27.343Z,17.88
2022-08-16T07:08:10.574Z,17.83
2022-08-16T07:10:38.968Z,17.96
2022-08-16T07:13:12.030Z,17.98
2022-08-16T07:15:50.470Z,18.06
2022-08-16T07:18:21.265Z,18.08
2022-08-16T07:20:53.834Z,18.11
2022-08-16T07:23:36.990Z,18.12
2022-08-16T07:26:08.381Z,18.17
2022-08-16T07:28:35.496Z,18.17
2022-08-16T07:31:03.277Z,18.23
2022-08-16T07:33:53.737Z,18.32
2022-08-16T07:36:22.749Z,18.30
2022-08-16T07:38:50.242Z,18.40
2022-08-16T07:41:17.502Z,18.36
2022-08-16T07:43:46.237Z,18.43
2022-08-16T07:46:39.738Z,18.47
2022-08-16T07:49:02.464Z,18.50
2022-08-16T07:51:33.150Z,18.52
2022-08-16T07:54:10.217Z,18.61
2022-08-16T07:56:38.117Z,18.68
2022-08-16T07:59:05.992Z,18.72
2022-08-16T08:01:33.436Z,18.78
2022-08-16T08:04:02.477Z,18.84
2022-08-16T08:06:32.443Z,18.97
2022-08-16T08:09:00.352Z,18.94
2022-08-16T08:11:29.369Z,18.98
2022-08-16T08:14:03.301Z,19.05
2022-08-16T08:16:32.478Z,19.08
2022-08-16T08:19:02.877Z,19.17
2022-08-16T08:21:59.286Z,19.20
2022-08-16T08:24:17.661Z,19.12
2022-08-16T08:26:44.762Z,19.26
2022-08-16T08:29:22.826Z,19.34
2022-08-16T08:31:52.887Z,19.39
2022-08-16T08:34:21.163Z,19.41
2022-08-16T08:36:54.436Z,19.51
2022-08-16T08:39:21.812Z,19.59
2022-08-16T08:41:49.393Z,19.62
2022-08-16T08:44:27.925Z,19.63
2022-08-16T08:47:00.077Z,19.65
2022-08-16T08:49:50.630Z,19.67
2022-08-16T08:52:34.623Z,19.86
2022-08-16T08:55:10.272Z,19.84
2022-08-16T08:57:42.718Z,19.84
2022-08-16T09:00:13.511Z,19.95
2022-08-16T09:02:44.412Z,20.07
2022-08-16T09:05:22.308Z,20.05
2022-08-16T09:08:01.350Z,20.05
2022-08-16T09:10:30.157Z,20.25
2022-08-16T09:12:58.646Z,20.21
2022-08-16T09:15:32.584Z,20.40
2022-08-16T09:18:02.105Z,20.48
2022-08-16T09:20:59.390Z,20.39
2022-08-16T09:23:29.194Z,20.52
2022-08-16T09:25:55.651Z,20.60
2022-08-16T09:29:13.939Z,20.64
2022-08-16T09:31:10.953Z,20.75
2022-08-16T09:33:39.333Z,20.88
2022-08-16T09:36:12.011Z,20.84
2022-08-16T09:38:54.077Z,20.94
2022-08-16T09:41:27.020Z,20.95
2022-08-16T09:43:59.159Z,21.11
2022-08-16T09:46:33.505Z,21.16
2022-08-16T09:49:13.813Z,21.29
2022-08-16T09:51:40.947Z,21.24
2022-08-16T09:54:10.644Z,21.47
2022-08-16T09:56:52.031Z,21.48
2022-08-16T09:59:21.107Z,21.35
2022-08-16T10:01:49.858Z,21.31
2022-08-16T10:04:31.278Z,21.31
2022-08-16T10:07:02.323Z,21.44
2022-08-16T10:09:54.080Z,21.44
2022-08-16T10:12:42.903Z,21.41
2022-08-16T10:15:21.089Z,21.56
2022-08-16T10:18:01.499Z,21.75
2022-08-16T10:20:31.498Z,21.90
2022-08-16T10:23:03.702Z,21.83
2022-08-16T10:27:17.978Z,21.92
2022-08-16T10:28:28.681Z,22.13
2022-08-16T10:30:58.941Z,22.16
2022-08-16T10:33:29.642Z,22.24
2022-08-16T10:36:02.556Z,22.24
2022-08-16T10:38:30.052Z,22.43
2022-08-16T10:40:59.822Z,22.41
2022-08-16T10:43:27.556Z,22.48
2022-08-16T10:46:00.573Z,22.47
2022-08-16T10:48:29.296Z,22.59
2022-08-16T10:50:58.722Z,22.55
2022-08-16T10:53:32.937Z,22.67
2022-08-16T10:56:52.566Z,22.71
2022-08-16T10:59:32.383Z,22.80
2022-08-16T11:02:21.605Z,22.90
2022-08-16T11:10:20.977Z,23.15
2022-08-16T11:12:52.956Z,23.17
2022-08-16T11:15:20.301Z,23.27
2022-08-16T11:18:48.564Z,23.29
2022-08-16T11:20:42.000Z,23.27
2022-08-16T11:23:09.994Z,23.32
2022-08-16T11:31:11.353Z,23.62
2022-08-16T11:33:55.655Z,23.65
2022-08-16T11:36:27.337Z,23.83
2022-08-16T11:38:57.134Z,23.72
2022-08-16T11:41:24.448Z,23.81
2022-08-16T11:43:53.060Z,24.00
2022-08-16T11:46:45.031Z,24.09
2022-08-16T11:49:12.692Z,24.18
2022-08-16T11:51:43.958Z,24.39
2022-08-16T11:54:20.657Z,24.30
2022-08-16T11:56:52.560Z,24.31
2022-08-16T11:59:24.447Z,24.41
2022-08-16T12:01:59.722Z,24.60
2022-08-16T12:04:31.733Z,24.47
2022-08-16T12:06:58.732Z,24.63
2022-08-16T12:09:29.593Z,24.78
2022-08-16T12:11:58.457Z,24.67
2022-08-16T12:14:35.498Z,24.90
2022-08-16T12:17:06.351Z,25.00
2022-08-16T12:19:36.035Z,24.96
2022-08-16T12:22:19.086Z,25.15
2022-08-16T12:24:52.110Z,25.17
2022-08-16T12:27:23.012Z,25.26
2022-08-16T12:29:53.533Z,25.35
2022-08-16T12:32:38.433Z,25.41
2022-08-16T12:35:14.827Z,25.40
2022-08-16T12:37:46.240Z,25.40
2022-08-16T12:40:24.551Z,25.41
2022-08-16T12:42:58.705Z,25.53
2022-08-16T12:45:31.085Z,25.49
2022-08-16T12:48:33.882Z,25.69
2022-08-16T12:51:04.445Z,25.87
2022-08-16T12:53:40.687Z,25.78
2022-08-16T12:56:11.680Z,25.80
2022-08-16T12:58:47.431Z,25.90
2022-08-16T13:01:22.446Z,26.05
2022-08-16T13:03:55.849Z,26.06
2022-08-16T13:06:36.517Z,26.18
2022-08-16T13:09:20.026Z,26.25
2022-08-16T13:12:00.427Z,26.35
2022-08-16T13:14:38.724Z,26.42
2022-08-16T13:17:09.603Z,26.51
2022-08-16T13:20:06.150Z,26.61
2022-08-16T13:22:25.358Z,26.50
2022-08-16T13:24:54.077Z,26.51
2022-08-16T13:27:20.912Z,26.68
2022-08-16T13:30:21.700Z,26.78
2022-08-16T13:32:54.953Z,26.86
2022-08-16T13:35:26.830Z,27.04
2022-08-16T13:38:01.026Z,27.11
2022-08-16T13:40:30.305Z,27.27
2022-08-16T13:42:56.982Z,27.18
2022-08-16T13:45:23.520Z,26.94
2022-08-16T13:47:52.863Z,27.16
2022-08-16T13:50:31.451Z,27.19
2022-08-16T13:53:07.350Z,27.15
2022-08-16T13:55:34.732Z,27.31
2022-08-16T13:58:37.560Z,27.26
2022-08-16T14:00:48.223Z,27.41
2022-08-16T14:03:21.147Z,27.54
2022-08-16T14:05:47.821Z,27.53
2022-08-16T14:08:14.297Z,27.70
2022-08-16T14:10:41.092Z,27.72
2022-08-16T14:13:07.640Z,27.82
2022-08-16T14:15:46.776Z,28.06
2022-08-16T14:18:17.074Z,28.22
2022-08-16T14:20:48.528Z,28.22
2022-08-16T14:23:15.547Z,27.88
2022-08-16T14:25:42.415Z,27.77
2022-08-16T14:28:09.545Z,27.87
2022-08-16T14:30:37.971Z,28.16
2022-08-16T14:33:07.138Z,28.36
2022-08-16T14:35:48.417Z,28.43
2022-08-16T14:38:18.907Z,28.60
2022-08-16T14:40:51.071Z,28.66
2022-08-16T14:43:22.054Z,28.79
2022-08-16T14:45:50.384Z,28.80
2022-08-16T14:48:25.032Z,28.65
2022-08-16T14:50:53.435Z,28.83
2022-08-16T14:53:20.448Z,28.98
2022-08-16T14:55:47.035Z,28.62
2022-08-16T14:58:19.165Z,28.86
2022-08-16T15:00:50.647Z,29.10
2022-08-16T15:03:21.755Z,29.18
2022-08-16T15:05:49.197Z,29.41
2022-08-16T15:08:20.536Z,29.36
2022-08-16T15:10:47.380Z,29.36
2022-08-16T15:13:15.065Z,29.42
2022-08-16T15:15:43.465Z,29.41
2022-08-16T15:18:12.075Z,29.54
2022-08-16T15:20:39.568Z,29.59
2022-08-16T15:23:08.789Z,29.65
2022-08-16T15:25:41.014Z,29.86
2022-08-16T15:28:24.116Z,29.75
2022-08-16T15:31:00.280Z,29.91
2022-08-16T15:33:27.398Z,29.71
2022-08-16T15:35:55.411Z,29.82
2022-08-16T15:38:57.584Z,29.90
2022-08-16T15:41:42.649Z,29.95
2022-08-16T15:44:13.057Z,30.00
2022-08-16T15:46:55.897Z,29.98
2022-08-16T15:49:25.338Z,30.12
2022-08-16T15:52:29.448Z,30.13
2022-08-16T15:54:58.038Z,29.91
2022-08-16T15:57:26.449Z,29.66
2022-08-16T15:59:56.032Z,29.49
2022-08-16T16:02:31.116Z,29.74
2022-08-16T16:05:01.764Z,29.29
2022-08-16T16:07:30.001Z,29.63
2022-08-16T16:09:58.821Z,29.92
2022-08-16T16:15:16.161Z,29.98
2022-08-16T16:17:43.935Z,29.83
2022-08-16T16:20:15.096Z,29.66
2022-08-16T16:22:43.501Z,29.93
2022-08-16T16:25:10.361Z,30.00
2022-08-16T16:27:37.177Z,29.74
2022-08-16T16:30:32.556Z,29.80
2022-08-16T16:32:51.598Z,29.60
2022-08-16T16:35:18.110Z,29.82
2022-08-16T16:37:45.122Z,29.83
2022-08-16T16:40:12.824Z,29.75
2022-08-16T16:42:44.595Z,29.65
2022-08-16T16:45:11.246Z,29.83
2022-08-16T16:47:41.602Z,29.92
2022-08-16T16:50:10.132Z,29.90
2022-08-16T16:52:44.857Z,29.91
2022-08-16T16:55:14.653Z,29.93
2022-08-16T16:58:01.114Z,29.93
2022-08-16T17:00:37.957Z,29.83
2022-08-16T17:03:06.132Z,29.88
2022-08-16T17:05:56.887Z,29.83
2022-08-16T17:08:27.244Z,29.71
2022-08-16T17:10:56.024Z,29.75
2022-08-16T17:13:24.885Z,29.67
2022-08-16T17:15:53.738Z,29.60
2022-08-16T17:19:14.293Z,29.57
2022-08-16T17:21:08.597Z,29.54
2022-08-16T17:23:59.316Z,29.45
2022-08-16T17:26:22.818Z,29.48
2022-08-16T17:29:02.523Z,29.33
2022-08-16T17:31:41.140Z,29.36
2022-08-16T17:34:31.032Z,29.31
2022-08-16T17:37:05.277Z,29.23
2022-08-16T17:39:58.237Z,29.22
2022-08-16T17:42:22.389Z,29.10
2022-08-16T17:44:51.826Z,29.07
2022-08-16T17:47:18.449Z,28.98
2022-08-16T17:49:44.958Z,28.99
2022-08-16T17:52:12.028Z,28.89
2022-08-16T17:54:38.582Z,28.85
2022-08-16T17:57:05.096Z,28.80
2022-08-16T17:59:32.149Z,28.73
2022-08-16T18:02:15.423Z,28.65
2022-08-16T18:04:52.425Z,28.56
2022-08-16T18:07:18.909Z,28.50
2022-08-16T18:09:45.458Z,28.41
2022-08-16T18:12:19.852Z,28.37
2022-08-16T18:15:11.325Z,28.23
2022-08-16T18:17:37.998Z,28.20
2022-08-16T18:20:07.060Z,28.11
2022-08-16T18:22:34.497Z,28.03
2022-08-16T18:25:01.234Z,27.95
2022-08-16T18:27:29.650Z,27.87
2022-08-16T18:29:56.188Z,27.74
2022-08-16T18:32:24.955Z,27.72
2022-08-16T18:34:54.503Z,27.65
2022-08-16T18:37:22.998Z,27.51
2022-08-16T18:39:49.596Z,27.42
2022-08-16T18:42:16.265Z,27.28
2022-08-16T18:44:43.998Z,27.22
2022-08-16T18:47:10.747Z,27.09
2022-08-16T18:49:37.413Z,26.99
2022-08-16T18:52:04.226Z,26.91
2022-08-16T18:54:32.721Z,26.85
2022-08-16T18:57:00.786Z,26.68
2022-08-16T18:59:30.528Z,26.63
2022-08-16T19:02:00.336Z,26.60
2022-08-16T19:04:49.014Z,26.46
2022-08-16T19:07:30.748Z,26.41
2022-08-16T19:09:58.039Z,26.32
2022-08-16T19:12:38.831Z,26.23
2022-08-16T19:15:15.927Z,26.12
2022-08-16T19:17:43.760Z,26.09
2022-08-16T19:20:26.363Z,25.99
2022-08-16T19:23:05.520Z,25.89
2022-08-16T19:25:48.296Z,25.79
2022-08-16T19:28:51.273Z,25.73
2022-08-16T19:31:33.380Z,25.61
2022-08-16T19:34:01.643Z,25.54
2022-08-16T19:36:35.920Z,25.49
2022-08-16T19:39:10.525Z,25.42
2022-08-16T19:41:51.956Z,25.23
2022-08-16T19:44:21.388Z,25.20
2022-08-16T19:46:49.273Z,25.16
2022-08-16T19:49:16.876Z,25.05
2022-08-16T19:51:47.618Z,24.99
2022-08-16T19:54:14.988Z,24.94
2022-08-16T19:56:41.668Z,24.89
2022-08-16T19:59:39.565Z,24.81
2022-08-16T20:01:55.332Z,24.73
2022-08-16T20:04:23.299Z,24.70
2022-08-16T20:06:52.294Z,24.62
2022-08-16T20:09:20.290Z,24.52
2022-08-16T20:11:48.425Z,24.48
2022-08-16T20:14:24.466Z,24.40
2022-08-16T20:16:55.199Z,24.33
2022-08-16T20:19:21.880Z,24.27
2022-08-16T20:21:48.534Z,24.22
2022-08-16T20:24:33.289Z,24.15
2022-08-16T20:27:02.335Z,24.08
2022-08-16T20:29:29.267Z,24.01
2022-08-16T20:31:56.069Z,23.93
2022-08-16T20:34:22.689Z,23.88
2022-08-16T20:36:49.489Z,23.80
2022-08-16T20:39:16.352Z,23.74
2022-08-16T20:41:43.734Z,23.66
2022-08-16T20:44:11.944Z,23.61
2022-08-16T20:46:41.549Z,23.54
2022-08-16T20:49:10.222Z,23.46
2022-08-16T20:51:46.804Z,23.38
2022-08-16T20:54:16.746Z,23.33
2022-08-16T20:56:43.380Z,23.25
2022-08-16T20:59:09.957Z,23.18
2022-08-16T21:01:46.875Z,23.11
2022-08-16T21:04:19.440Z,23.06
2022-08-16T21:06:54.283Z,23.00
2022-08-16T21:09:27.385Z,22.93
2022-08-16T21:11:56.287Z,22.84
2022-08-16T21:14:24.091Z,22.72
2022-08-16T21:16:51.333Z,22.71
2022-08-16T21:19:18.025Z,22.66
2022-08-16T21:21:44.722Z,22.60
2022-08-16T21:24:11.324Z,22.53
2022-08-16T21:26:38.897Z,22.50
2022-08-16T21:29:06.637Z,22.45
2022-08-16T21:31:40.142Z,22.37
2022-08-16T21:34:08.380Z,22.32
2022-08-16T21:36:36.647Z,22.21
2022-08-16T21:39:06.978Z,22.11
2022-08-16T21:41:35.372Z,22.17
2022-08-16T21:44:02.115Z,22.00
2022-08-16T21:46:29.092Z,21.98
2022-08-16T21:48:55.823Z,21.97
2022-08-16T21:51:22.556Z,21.97
2022-08-16T21:53:49.172Z,21.92
2022-08-16T21:56:17.313Z,21.87
2022-08-16T21:58:52.437Z,21.83
2022-08-16T22:01:23.313Z,21.81
2022-08-16T22:04:09.654Z,21.77
2022-08-16T22:06:41.928Z,21.62
2022-08-16T22:09:10.180Z,21.62
2022-08-16T22:11:37.251Z,21.55
2022-08-16T22:14:04.504Z,21.50
2022-08-16T22:16:34.699Z,21.46
2022-08-16T22:19:02.242Z,21.42
2022-08-16T22:21:29.749Z,21.37
2022-08-16T22:23:58.706Z,21.36
2022-08-16T22:26:34.048Z,21.29
2022-08-16T22:29:06.916Z,21.24
2022-08-16T22:31:34.159Z,21.20
2022-08-16T22:34:02.324Z,21.13
2022-08-16T22:36:30.998Z,21.10
2022-08-16T22:38:59.160Z,21.06
2022-08-16T22:41:27.886Z,21.03
2022-08-16T22:43:54.711Z,20.97
2022-08-16T22:46:21.470Z,20.94
2022-08-16T22:48:51.201Z,20.89
2022-08-16T22:51:20.034Z,20.85
2022-08-16T22:53:47.323Z,20.81
2022-08-16T22:56:15.763Z,20.75
2022-08-16T22:58:42.565Z,20.68
2022-08-16T23:01:10.215Z,20.65
2022-08-16T23:03:37.963Z,20.51
2022-08-16T23:06:05.698Z,20.50
2022-08-16T23:08:40.300Z,20.52
2022-08-16T23:11:21.212Z,20.44
2022-08-16T23:13:54.500Z,20.40
2022-08-16T23:16:32.373Z,20.38
2022-08-16T23:19:03.436Z,20.34
2022-08-16T23:21:30.700Z,20.31
2022-08-16T23:23:58.315Z,20.29
2022-08-16T23:26:43.793Z,20.25
2022-08-16T23:29:26.527Z,20.19
2022-08-16T23:31:56.606Z,20.15
2022-08-16T23:34:24.438Z,20.12
2022-08-16T23:36:51.293Z,20.06
2022-08-16T23:39:17.997Z,19.98
2022-08-16T23:41:44.692Z,19.97
2022-08-16T23:44:57.208Z,19.95
2022-08-16T23:46:58.008Z,19.91
2022-08-16T23:49:57.260Z,19.88
2022-08-16T23:52:14.576Z,19.84
2022-08-16T23:54:41.178Z,19.80
2022-08-16T23:57:08.537Z,19.80
2022-08-16T23:59:48.549Z,19.74
